Time;durP1;ratioP1;P1;durP2;ratioP2;P2;SDS_P1;SDS_P2;PMS_P1;PMS_P2;Temp;Humidity;BMP_temperature;BMP_pressure;BME280_temperature;BME280_humidity;BME280_pressure;Samples;Min_cycle;Max_cycle;Signal;HPM_P1;HPM_P2
2021/05/22 00:00:23;;;;;;;4.67;4.27;;;;;;;12.88;81.26;95186.09;5114473;28;20525;-83
2021/05/22 00:02:49;;;;;;;5.40;4.90;;;;;;;12.86;82.10;95169.59;5115153;28;20429;-83
2021/05/22 00:05:16;;;;;;;7.77;5.30;;;;;;;12.75;81.88;95168.91;5079065;28;20810;-82
2021/05/22 00:07:43;;;;;;;7.40;4.47;;;;;;;12.79;81.91;95167.66;5114638;28;20455;-83
2021/05/22 00:10:12;;;;;;;6.10;4.83;;;;;;;12.66;81.85;95165.25;5115274;28;20418;-81
2021/05/22 00:12:38;;;;;;;4.60;4.20;;;;;;;12.62;82.85;95162.06;5114681;28;20466;-83
2021/05/22 00:15:07;;;;;;;5.30;4.80;;;;;;;12.67;82.71;95159.03;5114992;28;20568;-82
2021/05/22 00:17:34;;;;;;;5.27;4.20;;;;;;;12.77;82.06;95156.41;5114743;28;20536;-82
2021/05/22 00:20:00;;;;;;;5.23;4.70;;;;;;;12.81;81.52;95150.75;5114636;28;20835;-83
2021/05/22 00:22:27;;;;;;;6.20;5.17;;;;;;;12.62;82.29;95158.59;5115125;28;20497;-82
2021/05/22 00:24:53;;;;;;;4.97;4.57;;;;;;;12.58;82.97;95142.25;5114524;28;20449;-83
2021/05/22 00:27:20;;;;;;;7.93;5.13;;;;;;;12.64;83.02;95143.50;5114326;28;20448;-83
2021/05/22 00:29:47;;;;;;;5.17;4.67;;;;;;;12.66;83.54;95139.75;5078608;28;20436;-83
2021/05/22 00:32:13;;;;;;;5.90;5.40;;;;;;;12.57;83.27;95134.50;5114311;28;20448;-83
2021/05/22 00:34:39;;;;;;;9.10;5.30;;;;;;;12.63;83.76;95144.47;5078169;28;20474;-82
2021/05/22 00:37:06;;;;;;;5.33;4.83;;;;;;;12.68;82.98;95147.53;5114075;28;20428;-82
2021/05/22 00:39:32;;;;;;;5.50;5.07;;;;;;;12.66;82.26;95133.66;5114598;28;20501;-84
2021/05/22 00:42:03;;;;;;;5.03;4.50;;;;;;;12.61;82.40;95130.63;5114124;28;20433;-83
2021/05/22 00:44:31;;;;;;;5.63;4.97;;;;;;;12.61;82.72;95128.81;5114301;28;20936;-83
2021/05/22 00:46:58;;;;;;;5.50;5.00;;;;;;;12.69;82.92;95138.66;5114702;28;20812;-82
2021/05/22 00:49:24;;;;;;;5.00;4.50;;;;;;;12.80;81.88;95135.91;5114104;28;20448;-82
2021/05/22 00:51:51;;;;;;;5.50;5.00;;;;;;;12.82;81.33;95136.59;5114501;28;20434;-83
2021/05/22 00:54:18;;;;;;;6.70;4.30;;;;;;;12.73;81.24;95133.97;5114184;28;20439;-83
2021/05/22 00:56:46;;;;;;;8.80;5.37;;;;;;;12.65;82.53;95145.16;5114590;28;20525;-83
2021/05/22 01:02:34;;;;;;;11.13;5.50;;;;;;;12.25;83.88;95126.81;5103336;28;20497;-83
2021/05/22 01:05:01;;;;;;;10.87;4.83;;;;;;;12.19;83.85;95128.19;5058758;28;20935;-82
2021/05/22 01:07:27;;;;;;;5.27;4.50;;;;;;;12.22;84.33;95120.00;5093562;28;20500;-83
2021/05/22 01:09:56;;;;;;;5.77;4.50;;;;;;;12.18;84.24;95126.50;5093791;28;20443;-83
2021/05/22 01:12:28;;;;;;;4.93;4.40;;;;;;;12.10;84.38;95124.53;5093619;28;20534;-83
2021/05/22 01:15:00;;;;;;;5.33;4.67;;;;;;;12.07;85.23;95130.06;5093315;28;20472;-82
2021/05/22 01:17:27;;;;;;;5.40;4.90;;;;;;;12.26;84.62;95126.66;5093320;28;20444;-83
2021/05/22 01:20:03;;;;;;;8.50;4.73;;;;;;;12.28;83.60;95119.47;5093113;28;20436;-83
2021/05/22 01:25:53;;;;;;;5.40;4.93;;;;;;;12.27;84.33;95136.22;5093047;28;20918;-83
2021/05/22 01:28:20;;;;;;;6.60;4.63;;;;;;;12.23;83.68;95126.09;5093323;28;20479;-82
2021/05/22 01:30:48;;;;;;;5.30;4.80;;;;;;;12.27;83.88;95120.44;5093275;28;20531;-83
2021/05/22 01:33:14;;;;;;;7.23;4.80;;;;;;;12.36;83.90;95126.69;5093050;28;20807;-84
2021/05/22 01:35:42;;;;;;;5.63;5.13;;;;;;;12.44;83.95;95124.22;5057745;28;20490;-82
2021/05/22 01:38:08;;;;;;;11.57;4.87;;;;;;;12.54;83.37;95134.75;5093327;28;21038;-83
2021/05/22 01:40:35;;;;;;;8.50;5.07;;;;;;;12.52;83.30;95127.00;5093068;28;20523;-83
2021/05/22 01:43:02;;;;;;;5.90;4.60;;;;;;;12.45;83.34;95125.06;5095306;28;20437;-83
2021/05/22 01:45:32;;;;;;;6.30;4.53;;;;;;;12.31;82.17;95131.53;5078094;28;21011;-83
2021/05/22 01:48:00;;;;;;;6.27;5.10;;;;;;;12.26;82.61;95131.94;5096926;28;20444;-82
2021/05/22 01:50:27;;;;;;;5.30;4.83;;;;;;;12.21;82.29;95133.31;5096713;28;20456;-83
2021/05/22 01:52:56;;;;;;;5.30;4.80;;;;;;;12.14;83.47;95137.41;5096717;28;20509;-82
2021/05/22 01:55:45;;;;;;;5.53;5.00;;;;;;;12.12;83.58;95140.19;5096947;28;20512;-83
2021/05/22 01:58:13;;;;;;;6.47;5.47;;;;;;;12.16;84.02;95140.78;5054099;28;20464;-83
2021/05/22 02:00:41;;;;;;;5.53;5.00;;;;;;;12.14;83.70;95137.41;5054014;28;20501;-82
2021/05/22 02:03:11;;;;;;;7.83;5.00;;;;;;;12.23;83.86;95142.72;5054373;28;20444;-82
2021/05/22 02:05:38;;;;;;;6.10;5.50;;;;;;;12.30;82.55;95156.16;5021784;28;20540;-82
2021/05/22 02:08:08;;;;;;;5.43;4.93;;;;;;;12.20;81.54;95150.88;5054189;28;20958;-82
2021/05/22 02:10:35;;;;;;;5.53;4.87;;;;;;;12.03;82.66;95151.50;5054266;28;20929;-83
2021/05/22 02:13:04;;;;;;;6.47;5.33;;;;;;;11.83;83.14;95145.31;5054042;28;20445;-83
2021/05/22 02:15:32;;;;;;;8.00;5.63;;;;;;;11.76;83.45;95147.63;5061813;28;20850;-83
2021/05/22 02:17:59;;;;;;;6.67;4.90;;;;;;;11.69;84.13;95148.28;5060894;28;20535;-82
2021/05/22 02:20:27;;;;;;;5.60;5.10;;;;;;;11.58;84.40;95130.81;5095896;28;20435;-83
2021/05/22 02:22:56;;;;;;;8.50;4.67;;;;;;;11.55;84.94;95117.88;5096112;28;20430;-83
2021/05/22 02:25:23;;;;;;;9.93;5.77;;;;;;;11.64;84.55;95117.13;5096061;28;20451;-82
2021/05/22 02:27:50;;;;;;;5.90;5.30;;;;;;;11.61;84.46;95119.19;5060811;28;20452;-82
2021/05/22 02:30:19;;;;;;;5.33;4.83;;;;;;;11.64;84.63;95125.00;5096098;28;20443;-83
2021/05/22 02:32:48;;;;;;;19.53;6.30;;;;;;;11.67;83.99;95119.50;5096081;28;20436;-83
2021/05/22 02:35:17;;;;;;;6.53;5.80;;;;;;;11.63;83.83;95133.03;5095952;28;20591;-82
2021/05/22 02:37:44;;;;;;;6.07;4.40;;;;;;;11.51;84.92;95121.75;5095738;28;20448;-83
2021/05/22 02:40:14;;;;;;;4.50;3.93;;;;;;;11.51;85.53;95129.63;5060667;28;20444;-82
2021/05/22 02:42:46;;;;;;;5.13;4.63;;;;;;;11.65;85.22;95133.72;5095491;28;20803;-83
2021/05/22 02:45:14;;;;;;;9.10;5.20;;;;;;;11.74;84.11;95125.06;5095745;28;20806;-83
2021/05/22 02:47:43;;;;;;;5.30;4.80;;;;;;;11.82;83.74;95129.69;5095523;28;20436;-82
2021/05/22 03:07:38;;;;;;;5.40;4.60;;;;;;;12.03;80.94;95146.25;5095394;28;20418;-82
2021/05/22 03:10:07;;;;;;;9.90;5.07;;;;;;;11.95;81.34;95138.19;5095526;28;20476;-82
2021/05/22 03:12:35;;;;;;;5.97;5.47;;;;;;;11.93;81.33;95140.13;5094947;28;20862;-83
2021/05/22 03:15:01;;;;;;;4.60;4.20;;;;;;;12.07;81.40;95152.91;5095226;28;20530;-82
2021/05/22 03:17:27;;;;;;;4.67;4.27;;;;;;;12.18;81.31;95154.63;5060602;28;20456;-83
2021/05/22 03:19:57;;;;;;;4.80;4.30;;;;;;;12.17;80.65;95151.16;5095124;28;20440;-82
2021/05/22 03:22:23;;;;;;;5.07;4.67;;;;;;;12.21;79.94;95152.56;5094744;28;20458;-82
2021/05/22 03:24:50;;;;;;;5.60;5.10;;;;;;;12.29;80.23;95163.22;5094975;28;20842;-82
2021/05/22 03:27:17;;;;;;;5.23;4.50;;;;;;;12.42;80.08;95155.09;5094984;28;20426;-82
2021/05/22 03:29:43;;;;;;;8.20;4.57;;;;;;;12.70;78.07;95169.28;5095049;28;20431;-82
2021/05/22 03:32:10;;;;;;;4.37;3.90;;;;;;;12.75;77.69;95159.19;5094968;28;20422;-83
2021/05/22 03:34:36;;;;;;;4.57;4.17;;;;;;;12.80;77.37;95169.31;5094548;28;20479;-83
2021/05/22 03:37:02;;;;;;;5.30;4.90;;;;;;;12.94;76.81;95179.44;5094416;28;20846;-83
2021/05/22 03:39:29;;;;;;;8.73;4.80;;;;;;;12.98;77.01;95179.00;5095361;28;20423;-82
2021/05/22 03:41:55;;;;;;;5.10;4.60;;;;;;;13.06;77.29;95177.53;5094893;28;20449;-83
2021/05/22 03:45:11;;;;;;;5.47;4.97;;;;;;;13.18;75.85;95189.59;5094830;28;20437;-83
2021/05/22 03:47:38;;;;;;;8.43;4.63;;;;;;;13.13;75.58;95189.16;5094438;28;20479;-82
2021/05/22 03:50:06;;;;;;;5.60;5.00;;;;;;;13.09;76.29;95193.06;5059523;28;20467;-82
2021/05/22 03:52:32;;;;;;;4.93;4.53;;;;;;;13.25;76.21;95211.78;5095224;28;20496;-83
2021/05/22 03:54:59;;;;;;;5.53;5.00;;;;;;;13.45;75.94;95224.00;5094258;28;20434;-83
2021/05/22 03:57:28;;;;;;;5.10;4.60;;;;;;;13.63;74.22;95221.50;5094262;28;20944;-83
2021/05/22 03:59:55;;;;;;;5.17;4.70;;;;;;;13.93;73.68;95226.59;5095086;28;20481;-82
2021/05/22 04:02:21;;;;;;;5.53;5.03;;;;;;;14.29;73.48;95223.31;5096923;28;20780;-83
2021/05/22 04:04:48;;;;;;;5.07;4.63;;;;;;;14.61;71.53;95218.47;5098112;28;20444;-84
2021/05/22 04:07:15;;;;;;;4.60;4.20;;;;;;;14.86;69.30;95223.06;5098528;28;20928;-84
2021/05/22 04:09:41;;;;;;;4.93;4.50;;;;;;;15.12;68.22;95214.41;5098545;28;20853;-85
2021/05/22 04:12:08;;;;;;;5.17;4.70;;;;;;;15.35;68.73;95215.66;5099144;28;20446;-84
2021/05/22 04:14:35;;;;;;;5.07;4.40;;;;;;;15.72;66.70;95217.31;5097477;28;20800;-85
2021/05/22 04:17:01;;;;;;;4.60;4.20;;;;;;;16.34;65.44;95215.41;5097749;28;20486;-84
2021/05/22 04:22:10;;;;;;;6.70;4.57;;;;;;;17.09;61.24;95197.84;5099020;28;20511;-83
2021/05/22 04:24:36;;;;;;;5.80;3.73;;;;;;;17.39;60.67;95190.28;5099777;28;20524;-84
2021/05/22 04:27:04;;;;;;;4.70;4.33;;;;;;;17.56;59.00;95183.97;5099571;28;20447;-85
2021/05/22 04:29:31;;;;;;;4.03;3.63;;;;;;;17.73;58.34;95185.69;5099996;28;20452;-86
2021/05/22 04:31:58;;;;;;;4.47;4.07;;;;;;;17.85;57.86;95186.16;5099186;28;20455;-84
2021/05/22 04:34:24;;;;;;;4.03;3.70;;;;;;;17.98;58.74;95178.53;5064926;28;20512;-86
2021/05/22 04:36:51;;;;;;;4.47;4.07;;;;;;;17.95;58.15;95177.03;5100472;28;20480;-84
2021/05/22 04:39:18;;;;;;;4.63;4.30;;;;;;;17.75;58.92;95183.69;5099018;28;20441;-84
2021/05/22 04:41:45;;;;;;;4.60;4.20;;;;;;;17.62;59.78;95189.44;5098643;28;20467;-84
2021/05/22 04:44:11;;;;;;;4.33;4.03;;;;;;;17.44;58.60;95186.13;5099106;28;20444;-84
2021/05/22 04:46:38;;;;;;;4.50;4.10;;;;;;;17.18;59.99;95191.56;5098514;28;20492;-85
2021/05/22 04:49:05;;;;;;;5.30;4.20;;;;;;;17.00;60.46;95189.03;5098207;28;20455;-84
2021/05/22 04:51:33;;;;;;;7.23;3.90;;;;;;;16.86;60.59;95186.19;5062443;28;20436;-84
2021/05/22 04:54:03;;;;;;;5.07;4.68;;;;;;;16.77;61.69;95192.44;5097462;28;20433;-84
2021/05/22 04:56:31;;;;;;;5.23;4.77;;;;;;;16.61;62.77;95201.97;5098049;28;20229;-85
2021/05/22 04:58:57;;;;;;;5.20;4.80;;;;;;;16.55;64.01;95215.03;5098991;28;20456;-84
2021/05/22 05:01:24;;;;;;;4.67;4.27;;;;;;;16.67;70.99;95213.78;5099283;28;20454;-85
2021/05/22 05:03:50;;;;;;;7.43;5.33;;;;;;;17.15;67.50;95223.72;5097549;28;20454;-83
2021/05/22 05:06:17;;;;;;;15.80;5.07;;;;;;;17.82;68.15;95219.19;5097804;28;20805;-84
2021/05/22 05:08:51;;;;;;;12.10;4.83;;;;;;;18.26;64.43;95213.50;5096684;28;20448;-82
2021/05/22 05:11:17;;;;;;;6.90;5.00;;;;;;;18.25;60.25;95209.19;5098843;28;20990;-86
2021/05/22 05:13:45;;;;;;;7.57;6.73;;;;;;;17.75;64.33;95215.53;5097258;28;20440;-84
2021/05/22 05:16:13;;;;;;;9.80;8.80;;;;;;;17.04;68.53;95213.41;5097092;28;20472;-81
2021/05/22 05:18:40;;;;;;;10.00;8.60;;;;;;;16.86;71.92;95223.31;5103100;28;20450;-84
2021/05/22 05:21:06;;;;;;;9.43;7.60;;;;;;;16.30;71.98;95220.19;5104701;28;20451;-86
2021/05/22 05:23:32;;;;;;;11.33;8.13;;;;;;;16.50;72.97;95226.09;5102453;28;20439;-87
2021/05/22 05:25:59;;;;;;;8.20;7.40;;;;;;;16.23;72.92;95232.41;5104350;28;20454;-88
2021/05/22 05:28:25;;;;;;;9.33;8.33;;;;;;;16.51;76.24;95230.41;5104981;28;20459;-86
2021/05/22 05:30:53;;;;;;;8.00;7.30;;;;;;;16.80;72.67;95255.75;5105737;28;20465;-86
2021/05/22 05:36:01;;;;;;;12.13;8.23;;;;;;;17.20;69.33;95253.22;5105160;28;20471;-87
2021/05/22 05:38:27;;;;;;;8.90;7.17;;;;;;;17.42;69.79;95261.59;5063271;28;20966;-87
2021/05/22 05:40:55;;;;;;;8.63;7.83;;;;;;;17.61;70.80;95266.56;5064607;28;20466;-87
2021/05/22 05:43:24;;;;;;;10.00;7.60;;;;;;;17.97;67.49;95276.94;5063392;28;20453;-88
2021/05/22 05:45:51;;;;;;;13.60;7.80;;;;;;;18.41;66.02;95269.41;5064142;28;20499;-88
2021/05/22 05:48:18;;;;;;;8.40;7.53;;;;;;;18.85;62.54;95281.31;5063964;28;20450;-87
2021/05/22 05:50:45;;;;;;;8.90;7.23;;;;;;;19.18;60.79;95267.91;5061844;28;20442;-86
2021/05/22 05:53:11;;;;;;;9.47;6.80;;;;;;;19.45;59.88;95270.09;5063744;28;20552;-87
2021/05/22 05:55:39;;;;;;;11.93;7.63;;;;;;;19.59;59.71;95265.03;5064647;28;20571;-85
2021/05/22 05:58:06;;;;;;;8.67;7.83;;;;;;;19.95;59.19;95273.25;5103554;28;20434;-85
2021/05/22 06:00:32;;;;;;;9.30;7.30;;;;;;;20.14;58.20;95271.97;5103979;28;21002;-85
2021/05/22 06:02:59;;;;;;;6.90;6.20;;;;;;;20.09;57.58;95267.16;5102130;28;20436;-85
2021/05/22 06:06:06;;;;;;;7.60;6.70;;;;;;;20.32;56.50;95267.97;5042738;28;20502;-89
2021/05/22 06:11:14;;;;;;;10.20;7.90;;;;;;;20.60;57.03;95278.91;5036495;28;20474;-84
2021/05/22 06:13:41;;;;;;;21.83;9.60;;;;;;;20.94;55.49;95278.38;5039147;28;20489;-87
2021/05/22 06:16:19;;;;;;;29.97;12.70;;;;;;;21.20;53.89;95282.41;5040601;28;20487;-86
2021/05/22 06:24:09;;;;;;;6.70;6.03;;;;;;;21.48;52.61;95296.75;5087858;28;20432;-87
2021/05/22 06:26:35;;;;;;;7.80;6.37;;;;;;;21.21;53.62;95295.56;5105598;28;20500;-86
2021/05/22 06:29:02;;;;;;;7.10;6.40;;;;;;;20.94;54.77;95291.69;5102415;28;20454;-87
2021/05/22 06:31:29;;;;;;;7.80;6.90;;;;;;;20.47;54.58;95291.19;5102396;28;20956;-86
2021/05/22 06:33:55;;;;;;;8.27;6.30;;;;;;;20.56;59.41;95295.44;5101525;28;20478;-84
2021/05/22 06:36:22;;;;;;;7.83;6.50;;;;;;;20.41;56.52;95298.91;5104312;28;20474;-84
2021/05/22 06:41:30;;;;;;;9.80;7.60;;;;;;;19.94;57.00;95284.91;5108370;28;20440;-90
2021/05/22 06:43:56;;;;;;;7.23;6.50;;;;;;;19.65;57.56;95281.13;5107039;28;20455;-89
2021/05/22 06:49:09;;;;;;;9.37;7.80;;;;;;;18.79;60.45;95282.00;5107103;28;20797;-90
2021/05/22 06:51:35;;;;;;;8.10;6.70;;;;;;;18.60;62.86;95282.34;5106040;28;20450;-90
2021/05/22 06:54:04;;;;;;;12.50;7.53;;;;;;;18.32;62.59;95279.25;5107305;28;20434;-91
2021/05/22 06:56:50;;;;;;;6.63;6.03;;;;;;;18.39;63.79;95276.75;5106742;28;20538;-91
2021/05/22 06:59:19;;;;;;;7.80;6.90;;;;;;;18.47;62.94;95271.41;5064934;28;20806;-91
2021/05/22 07:01:45;;;;;;;7.77;7.07;;;;;;;18.39;61.91;95276.75;5064243;28;20447;-88
2021/05/22 07:04:21;;;;;;;15.90;7.97;;;;;;;18.39;62.83;95274.91;5065007;28;20538;-89
2021/05/22 07:06:49;;;;;;;7.30;6.60;;;;;;;18.54;61.95;95291.84;5065145;28;20453;-90
2021/05/22 07:09:17;;;;;;;8.00;6.10;;;;;;;18.79;67.83;95291.78;5064116;28;20457;-87
2021/05/22 07:11:44;;;;;;;9.10;8.30;;;;;;;19.03;62.04;95299.69;5063883;28;20493;-87
2021/05/22 07:14:13;;;;;;;9.07;8.20;;;;;;;19.27;61.09;95308.59;5062163;28;20446;-90
2021/05/22 07:16:39;;;;;;;7.33;6.47;;;;;;;19.11;59.86;95313.00;5056679;28;20477;-89
2021/05/22 07:21:50;;;;;;;8.60;7.67;;;;;;;19.22;60.57;95308.28;5104407;28;20443;-86
2021/05/22 07:24:17;;;;;;;8.47;7.47;;;;;;;19.16;60.90;95302.66;5104025;28;20445;-81
2021/05/22 07:26:44;;;;;;;13.20;8.07;;;;;;;19.24;61.20;95315.09;5105565;28;20464;-89
2021/05/22 07:29:11;;;;;;;14.00;8.50;;;;;;;19.22;60.33;95311.78;5106389;28;20449;-89
2021/05/22 07:31:40;;;;;;;10.53;8.27;;;;;;;19.35;60.34;95295.25;5106718;28;20511;-89
2021/05/22 07:34:08;;;;;;;10.40;8.23;;;;;;;19.50;60.71;95288.19;5106645;28;20554;-84
2021/05/22 07:41:59;;;;;;;8.70;7.33;;;;;;;19.59;58.92;95244.56;5105151;28;20462;-88
2021/05/22 07:44:25;;;;;;;7.57;6.87;;;;;;;19.70;59.42;95233.50;5105708;28;20516;-89
2021/05/22 07:46:51;;;;;;;8.20;6.10;;;;;;;19.62;58.30;95224.75;5100249;28;20503;-87
2021/05/22 07:49:18;;;;;;;9.00;6.63;;;;;;;19.75;58.44;95231.16;5097380;28;20786;-86
2021/05/22 07:51:46;;;;;;;7.87;6.90;;;;;;;20.10;59.36;95244.84;5103862;28;20511;-88
2021/05/22 07:54:12;;;;;;;12.50;7.13;;;;;;;20.02;57.10;95239.59;5086512;28;20495;-92
2021/05/22 07:56:54;;;;;;;8.23;7.23;;;;;;;20.56;57.06;95229.63;5087039;28;20525;-91
2021/05/22 07:59:23;;;;;;;6.47;5.87;;;;;;;20.95;56.96;95232.00;5084995;28;20455;-85
2021/05/22 08:01:50;;;;;;;7.20;6.60;;;;;;;20.82;55.22;95223.00;5081679;28;20912;-84
2021/05/22 08:04:16;;;;;;;6.10;5.60;;;;;;;20.62;56.56;95217.38;5086137;28;20443;-89
2021/05/22 08:06:42;;;;;;;7.00;6.10;;;;;;;20.71;56.89;95213.59;5082624;28;20967;-81
2021/05/22 08:09:09;;;;;;;6.83;6.13;;;;;;;20.88;56.88;95208.91;5099118;28;20450;-85
2021/05/22 08:11:35;;;;;;;6.60;5.67;;;;;;;20.87;54.48;95217.94;5103168;28;20447;-84
2021/05/22 08:14:03;;;;;;;5.90;5.40;;;;;;;21.10;56.15;95231.13;5102405;28;20418;-86
2021/05/22 08:16:38;;;;;;;7.03;5.40;;;;;;;21.25;54.44;95238.16;5102606;28;20468;-86
2021/05/22 08:19:10;;;;;;;5.93;5.00;;;;;;;21.28;53.04;95250.28;5102825;28;20464;-89
2021/05/22 08:21:38;;;;;;;5.67;5.17;;;;;;;21.48;53.45;95247.88;5102600;28;20943;-87
2021/05/22 08:24:06;;;;;;;5.60;5.20;;;;;;;21.60;52.65;95249.00;5103135;28;20879;-86
2021/05/22 08:26:34;;;;;;;5.80;5.20;;;;;;;21.48;51.45;95245.19;5100988;28;20525;-86
2021/05/22 08:29:02;;;;;;;6.03;5.53;;;;;;;21.37;52.09;95243.81;5103351;28;20416;-87
2021/05/22 08:31:31;;;;;;;8.57;5.90;;;;;;;21.49;51.65;95236.16;5103472;28;20444;-85
2021/05/22 08:33:58;;;;;;;22.80;10.97;;;;;;;21.54;52.27;95234.56;5102342;28;20484;-86
2021/05/22 08:36:24;;;;;;;11.53;9.20;;;;;;;21.64;51.37;95228.91;5102724;28;20471;-86
2021/05/22 08:38:51;;;;;;;7.03;6.43;;;;;;;21.47;51.74;95232.84;5102480;28;20456;-86
2021/05/22 08:41:18;;;;;;;6.57;6.00;;;;;;;21.58;51.30;95229.69;5096849;28;20949;-86
2021/05/22 08:43:48;;;;;;;6.43;5.77;;;;;;;21.13;52.49;95230.78;5096422;28;20793;-86
2021/05/22 08:46:18;;;;;;;6.60;5.83;;;;;;;21.17;52.89;95224.06;5082239;28;20437;-86
2021/05/22 08:48:47;;;;;;;36.50;6.23;;;;;;;21.55;48.87;95222.06;5083199;28;20453;-87
2021/05/22 08:51:14;;;;;;;8.27;7.30;;;;;;;21.59;53.54;95220.66;5084144;28;20451;-86
2021/05/22 08:53:41;;;;;;;5.57;5.07;;;;;;;21.76;50.64;95226.59;5086476;28;20452;-87
2021/05/22 08:56:07;;;;;;;9.83;5.27;;;;;;;21.89;48.82;95218.69;5087083;28;20492;-87
2021/05/22 08:58:34;;;;;;;6.63;5.17;;;;;;;21.95;47.82;95217.91;5086203;28;20454;-86
2021/05/22 09:01:01;;;;;;;6.40;3.70;;;;;;;21.97;45.79;95223.88;5087109;28;20454;-86
2021/05/22 09:03:49;;;;;;;4.23;3.40;;;;;;;22.11;45.74;95207.00;5085877;28;20439;-86
2021/05/22 09:06:17;;;;;;;13.17;5.20;;;;;;;22.33;48.54;95204.28;5087008;28;20477;-87
2021/05/22 09:08:58;;;;;;;4.83;4.40;;;;;;;22.62;48.26;95201.41;5085542;28;20504;-86
2021/05/22 09:11:31;;;;;;;4.50;4.20;;;;;;;22.93;48.23;95186.78;5086491;28;20431;-87
2021/05/22 09:13:59;;;;;;;5.03;3.90;;;;;;;22.97;49.27;95190.69;5087306;28;20448;-86
2021/05/22 09:16:36;;;;;;;6.73;4.97;;;;;;;22.79;49.26;95193.88;5086531;28;20472;-86
2021/05/22 09:19:07;;;;;;;6.73;5.70;;;;;;;22.58;50.02;95180.59;5085448;28;20456;-87
2021/05/22 09:21:35;;;;;;;5.67;4.53;;;;;;;22.53;45.63;95195.34;5086248;28;20612;-86
2021/05/22 09:24:02;;;;;;;5.50;4.30;;;;;;;22.53;45.81;95195.34;5086036;28;20443;-84
2021/05/22 09:26:35;;;;;;;5.10;3.80;;;;;;;22.28;46.85;95202.19;5085871;28;20448;-85
2021/05/22 09:29:02;;;;;;;5.30;4.63;;;;;;;21.96;45.60;95200.84;5086326;28;20430;-86
2021/05/22 09:31:28;;;;;;;4.53;3.80;;;;;;;21.93;46.39;95198.56;5086150;28;20442;-86
2021/05/22 09:33:58;;;;;;;8.10;4.33;;;;;;;21.79;45.79;95197.66;5085884;28;20506;-86
2021/05/22 09:36:27;;;;;;;5.27;3.73;;;;;;;21.89;47.14;95190.13;5067235;28;20485;-88
2021/05/22 09:38:55;;;;;;;7.97;4.07;;;;;;;21.86;45.09;95189.69;5085536;28;20437;-87
2021/05/22 09:41:23;;;;;;;4.43;3.77;;;;;;;21.92;43.63;95186.22;5085935;28;20473;-87
2021/05/22 09:44:07;;;;;;;5.70;3.40;;;;;;;21.91;41.37;95182.72;5085769;28;20482;-86
2021/05/22 09:46:36;;;;;;;4.00;3.60;;;;;;;21.74;43.28;95172.53;5086020;28;20533;-85
2021/05/22 09:49:04;;;;;;;5.40;2.97;;;;;;;21.85;39.94;95170.16;5085348;28;20439;-86
2021/05/22 09:51:32;;;;;;;2.80;2.60;;;;;;;21.95;39.12;95159.13;5086969;28;20952;-87
2021/05/22 09:54:20;;;;;;;4.47;3.83;;;;;;;21.93;42.25;95166.50;5085911;28;20480;-88
2021/05/22 09:56:49;;;;;;;3.80;3.20;;;;;;;21.94;38.88;95168.16;5043629;28;20479;-86
2021/05/22 09:59:15;;;;;;;3.30;3.00;;;;;;;21.77;42.21;95174.81;5043451;28;20479;-86
2021/05/22 10:01:44;;;;;;;3.20;2.90;;;;;;;21.62;42.72;95162.34;5044911;28;20510;-88
2021/05/22 10:04:18;;;;;;;3.00;2.80;;;;;;;21.42;44.98;95152.50;5042912;28;20443;-86
2021/05/22 10:06:48;;;;;;;5.50;4.20;;;;;;;21.43;46.40;95154.16;5044167;28;20830;-86
2021/05/22 10:09:16;;;;;;;4.33;3.87;;;;;;;21.36;45.81;95154.06;5044305;28;20456;-85
2021/05/22 10:12:03;;;;;;;6.47;3.70;;;;;;;21.48;46.46;95146.38;5043359;28;20462;-87
2021/05/22 10:14:34;;;;;;;4.37;3.97;;;;;;;21.54;47.12;95154.47;5058496;28;20506;-88
2021/05/22 10:17:02;;;;;;;3.90;3.00;;;;;;;21.49;47.06;95138.19;5084613;28;20511;-87
2021/05/22 10:19:30;;;;;;;3.90;3.33;;;;;;;21.48;46.08;95131.19;5087804;28;20466;-88
2021/05/22 10:22:03;;;;;;;4.50;4.17;;;;;;;21.33;45.46;95128.56;5086801;28;20453;-87
2021/05/22 10:24:30;;;;;;;3.83;3.50;;;;;;;21.45;47.03;95126.25;5084654;28;20438;-88
2021/05/22 10:26:58;;;;;;;3.90;3.43;;;;;;;21.41;46.43;95119.63;5085864;28;20462;-87
2021/05/22 10:29:25;;;;;;;3.90;3.60;;;;;;;21.16;47.91;95112.97;5085078;28;20508;-89
2021/05/22 10:31:52;;;;;;;3.90;3.60;;;;;;;20.96;48.32;95097.56;5086772;28;20441;-88
2021/05/22 10:34:21;;;;;;;4.73;4.33;;;;;;;20.78;48.97;95091.81;5086578;28;20473;-88
2021/05/22 10:36:53;;;;;;;6.40;4.30;;;;;;;21.09;49.84;95088.88;5086092;28;20565;-88
2021/05/22 10:39:39;;;;;;;4.70;3.43;;;;;;;21.09;48.60;95085.38;5085589;28;20836;-88
2021/05/22 10:42:08;;;;;;;6.27;4.47;;;;;;;21.34;48.92;95082.16;5086573;28;20446;-88
2021/05/22 10:44:38;;;;;;;4.30;4.00;;;;;;;21.52;49.03;95078.22;5086200;28;20469;-88
2021/05/22 10:47:11;;;;;;;6.90;3.90;;;;;;;21.64;49.00;95072.16;5084904;28;20968;-86
2021/05/22 10:49:49;;;;;;;4.33;3.97;;;;;;;21.81;46.87;95066.53;5085888;28;20500;-88
2021/05/22 10:52:18;;;;;;;4.70;4.40;;;;;;;21.82;47.86;95063.66;5087155;28;20471;-89
2021/05/22 10:55:01;;;;;;;5.80;4.03;;;;;;;22.00;47.43;95057.00;5085469;28;20451;-88
2021/05/22 10:57:29;;;;;;;6.77;4.30;;;;;;;22.05;45.94;95052.75;5084880;28;20569;-85
2021/05/22 11:00:19;;;;;;;5.70;4.20;;;;;;;22.14;45.69;95046.22;5085311;28;20449;-87
2021/05/22 11:02:50;;;;;;;4.20;3.70;;;;;;;22.29;44.80;95039.94;5084555;28;20918;-86
2021/05/22 11:05:36;;;;;;;4.27;3.90;;;;;;;22.29;44.24;95031.91;5085957;28;20448;-85
2021/05/22 11:08:29;;;;;;;3.80;3.50;;;;;;;22.44;43.78;95040.59;5085791;28;20798;-87
2021/05/22 11:13:41;;;;;;;3.70;3.40;;;;;;;22.38;45.39;95031.53;5082877;28;20451;-87
2021/05/22 11:16:08;;;;;;;8.63;4.33;;;;;;;22.44;44.91;95037.94;5083419;28;20498;-86
2021/05/22 11:19:01;;;;;;;6.80;3.30;;;;;;;22.47;43.20;95026.84;5083690;28;20457;-86
2021/05/22 11:21:28;;;;;;;9.23;3.20;;;;;;;22.56;46.68;95017.63;5085680;28;20444;-86
2021/05/22 11:24:16;;;;;;;3.63;3.33;;;;;;;22.56;43.36;95021.13;5084374;28;20451;-87
2021/05/22 11:26:59;;;;;;;3.60;2.87;;;;;;;22.52;42.94;95016.34;5085191;28;20504;-89
2021/05/22 11:29:58;;;;;;;7.23;3.03;;;;;;;22.46;43.88;95019.84;5084549;28;20515;-88
2021/05/22 11:32:56;;;;;;;3.40;3.13;;;;;;;22.48;40.79;95023.13;5084293;28;20490;-87
2021/05/22 11:35:45;;;;;;;4.43;3.03;;;;;;;22.47;41.67;95013.47;5083225;28;20496;-88
2021/05/22 11:38:36;;;;;;;3.33;3.03;;;;;;;22.64;41.11;95019.28;5080404;28;20468;-89
2021/05/22 11:41:10;;;;;;;3.73;3.43;;;;;;;22.83;44.35;95019.34;5080728;28;20464;-83
2021/05/22 11:43:42;;;;;;;4.03;3.73;;;;;;;22.82;41.18;95015.03;5056057;28;20923;-83
2021/05/22 11:46:11;;;;;;;8.07;4.13;;;;;;;22.85;43.39;95016.50;5075698;28;20812;-83
2021/05/22 11:48:40;;;;;;;6.20;3.53;;;;;;;22.92;42.17;95014.66;5076937;28;20443;-85
2021/05/22 11:51:25;;;;;;;3.60;2.80;;;;;;;23.09;41.76;95001.69;5076494;28;20452;-81
2021/05/22 11:53:54;;;;;;;2.97;2.77;;;;;;;23.17;39.73;95004.19;5077112;28;20437;-82
2021/05/22 11:56:21;;;;;;;3.50;2.83;;;;;;;23.24;40.59;94999.66;5076132;28;20872;-83
2021/05/22 11:58:49;;;;;;;3.53;3.23;;;;;;;23.13;39.90;94986.88;5075516;28;20937;-83
2021/05/22 12:01:21;;;;;;;3.63;3.07;;;;;;;23.24;41.93;94991.63;5039651;28;20821;-81
2021/05/22 12:03:49;;;;;;;6.18;3.05;;;;;;;23.35;41.56;94980.28;5090744;28;20792;-83
2021/05/22 12:06:28;;;;;;;4.40;3.23;;;;;;;23.41;38.29;94979.47;5095935;28;20243;-83
2021/05/22 12:09:03;;;;;;;12.00;3.80;;;;;;;23.39;39.16;94980.69;5097176;28;20963;-86
2021/05/22 12:11:31;;;;;;;3.87;3.57;;;;;;;23.35;38.51;94979.47;5097195;28;20452;-82
2021/05/22 12:14:00;;;;;;;3.87;3.57;;;;;;;23.31;38.77;94975.56;5102429;28;20493;-86
2021/05/22 12:16:26;;;;;;;5.00;3.23;;;;;;;23.25;39.28;94971.03;5099423;28;20484;-81
2021/05/22 12:18:54;;;;;;;3.23;3.03;;;;;;;23.15;38.62;94968.78;5093735;28;20430;-80
2021/05/22 12:21:26;;;;;;;5.63;2.83;;;;;;;23.18;39.38;94969.19;5093504;28;20800;-81
2021/05/22 12:23:53;;;;;;;2.87;2.67;;;;;;;23.11;39.57;94972.88;5093829;28;20433;-80
2021/05/22 12:26:32;;;;;;;3.20;3.00;;;;;;;23.03;39.27;94970.41;5093504;28;20810;-81
2021/05/22 12:28:59;;;;;;;6.73;2.93;;;;;;;23.09;37.90;94974.94;5060601;28;20807;-84
2021/05/22 12:31:26;;;;;;;2.80;2.60;;;;;;;23.07;39.24;94963.59;5099050;28;20865;-87
2021/05/22 12:33:59;;;;;;;4.60;3.20;;;;;;;23.09;37.75;94959.69;5010494;28;20468;-81
2021/05/22 12:36:27;;;;;;;4.67;3.50;;;;;;;23.01;38.41;94951.03;5061301;28;20472;-83